sensor_id;sensor_type;location;lat;lon;timestamp;P1;durP1;ratioP1;P2;durP2;ratioP2
31596;SDS011;18201;50.978;7.034;2022-08-19T00:00:10;22.20;;;19.92;;
31596;SDS011;18201;50.978;7.034;2022-08-19T00:01:17;21.85;;;19.35;;
31596;SDS011;18201;50.978;7.034;2022-08-19T00:02:18;20.73;;;18.73;;
31596;SDS011;18201;50.978;7.034;2022-08-19T00:03:20;21.00;;;18.85;;
31596;SDS011;18201;50.978;7.034;2022-08-19T00:04:21;22.25;;;19.98;;
31596;SDS011;18201;50.978;7.034;2022-08-19T00:05:25;25.95;;;21.40;;
31596;SDS011;18201;50.978;7.034;2022-08-19T00:06:26;22.63;;;20.33;;
31596;SDS011;18201;50.978;7.034;2022-08-19T00:07:28;23.65;;;21.08;;
31596;SDS011;18201;50.978;7.034;2022-08-19T00:08:29;21.08;;;19.08;;
31596;SDS011;18201;50.978;7.034;2022-08-19T00:09:32;22.35;;;19.65;;
31596;SDS011;18201;50.978;7.034;2022-08-19T00:10:33;22.55;;;20.27;;
31596;SDS011;18201;50.978;7.034;2022-08-19T00:11:36;20.90;;;18.70;;
31596;SDS011;18201;50.978;7.034;2022-08-19T00:12:37;22.10;;;19.85;;
31596;SDS011;18201;50.978;7.034;2022-08-19T00:13:39;21.50;;;19.27;;
31596;SDS011;18201;50.978;7.034;2022-08-19T00:14:40;22.30;;;19.95;;
31596;SDS011;18201;50.978;7.034;2022-08-19T00:15:42;21.65;;;19.42;;
31596;SDS011;18201;50.978;7.034;2022-08-19T00:16:46;22.40;;;20.00;;
31596;SDS011;18201;50.978;7.034;2022-08-19T00:17:48;21.65;;;19.35;;
31596;SDS011;18201;50.978;7.034;2022-08-19T00:18:49;21.30;;;19.00;;
31596;SDS011;18201;50.978;7.034;2022-08-19T00:19:51;22.00;;;19.80;;
31596;SDS011;18201;50.978;7.034;2022-08-19T00:20:52;23.08;;;20.40;;
31596;SDS011;18201;50.978;7.034;2022-08-19T00:21:55;21.73;;;19.65;;
31596;SDS011;18201;50.978;7.034;2022-08-19T00:22:56;20.55;;;18.58;;
31596;SDS011;18201;50.978;7.034;2022-08-19T00:23:58;22.02;;;19.83;;
31596;SDS011;18201;50.978;7.034;2022-08-19T00:25:00;23.00;;;20.55;;
31596;SDS011;18201;50.978;7.034;2022-08-19T00:26:02;22.85;;;20.38;;
31596;SDS011;18201;50.978;7.034;2022-08-19T00:27:04;22.08;;;19.88;;
31596;SDS011;18201;50.978;7.034;2022-08-19T00:28:14;22.17;;;19.85;;
31596;SDS011;18201;50.978;7.034;2022-08-19T00:29:17;22.77;;;19.63;;
31596;SDS011;18201;50.978;7.034;2022-08-19T00:30:20;22.15;;;19.95;;
31596;SDS011;18201;50.978;7.034;2022-08-19T00:31:21;22.27;;;19.90;;
31596;SDS011;18201;50.978;7.034;2022-08-19T00:32:27;21.55;;;19.48;;
31596;SDS011;18201;50.978;7.034;2022-08-19T00:33:29;23.38;;;21.02;;
31596;SDS011;18201;50.978;7.034;2022-08-19T00:34:32;20.63;;;18.52;;
31596;SDS011;18201;50.978;7.034;2022-08-19T00:35:34;25.13;;;19.83;;
31596;SDS011;18201;50.978;7.034;2022-08-19T00:36:39;22.05;;;19.90;;
31596;SDS011;18201;50.978;7.034;2022-08-19T00:37:43;22.70;;;20.30;;
31596;SDS011;18201;50.978;7.034;2022-08-19T00:38:45;21.13;;;18.80;;
31596;SDS011;18201;50.978;7.034;2022-08-19T00:39:46;22.15;;;18.90;;
31596;SDS011;18201;50.978;7.034;2022-08-19T00:40:48;23.10;;;20.48;;
31596;SDS011;18201;50.978;7.034;2022-08-19T00:41:50;22.63;;;19.95;;
31596;SDS011;18201;50.978;7.034;2022-08-19T00:42:52;21.77;;;19.52;;
31596;SDS011;18201;50.978;7.034;2022-08-19T00:43:57;22.17;;;19.90;;
31596;SDS011;18201;50.978;7.034;2022-08-19T00:45:02;22.75;;;20.20;;
31596;SDS011;18201;50.978;7.034;2022-08-19T00:46:08;23.35;;;20.08;;
31596;SDS011;18201;50.978;7.034;2022-08-19T00:47:12;21.92;;;19.45;;
31596;SDS011;18201;50.978;7.034;2022-08-19T00:48:15;22.60;;;20.27;;
31596;SDS011;18201;50.978;7.034;2022-08-19T00:49:18;22.45;;;20.33;;
31596;SDS011;18201;50.978;7.034;2022-08-19T00:50:26;22.75;;;19.60;;
31596;SDS011;18201;50.978;7.034;2022-08-19T00:51:29;22.10;;;19.88;;
31596;SDS011;18201;50.978;7.034;2022-08-19T00:52:33;22.48;;;20.27;;
31596;SDS011;18201;50.978;7.034;2022-08-19T00:53:39;22.10;;;19.95;;
31596;SDS011;18201;50.978;7.034;2022-08-19T00:54:40;21.30;;;19.15;;
31596;SDS011;18201;50.978;7.034;2022-08-19T00:55:43;21.52;;;19.38;;
31596;SDS011;18201;50.978;7.034;2022-08-19T00:56:47;22.30;;;19.90;;
31596;SDS011;18201;50.978;7.034;2022-08-19T00:57:51;22.52;;;19.52;;
31596;SDS011;18201;50.978;7.034;2022-08-19T00:58:56;21.92;;;19.60;;
31596;SDS011;18201;50.978;7.034;2022-08-19T00:59:59;21.50;;;19.35;;
31596;SDS011;18201;50.978;7.034;2022-08-19T01:01:03;22.73;;;20.33;;
31596;SDS011;18201;50.978;7.034;2022-08-19T01:02:04;23.23;;;19.98;;
31596;SDS011;18201;50.978;7.034;2022-08-19T01:03:08;22.42;;;20.02;;
31596;SDS011;18201;50.978;7.034;2022-08-19T01:04:12;21.73;;;19.63;;
31596;SDS011;18201;50.978;7.034;2022-08-19T01:05:14;21.42;;;19.02;;
31596;SDS011;18201;50.978;7.034;2022-08-19T01:06:20;22.10;;;19.90;;
31596;SDS011;18201;50.978;7.034;2022-08-19T01:07:22;21.17;;;18.80;;
31596;SDS011;18201;50.978;7.034;2022-08-19T01:08:24;22.33;;;19.85;;
31596;SDS011;18201;50.978;7.034;2022-08-19T01:09:25;21.63;;;19.52;;
31596;SDS011;18201;50.978;7.034;2022-08-19T01:10:27;21.45;;;19.23;;
31596;SDS011;18201;50.978;7.034;2022-08-19T01:11:32;21.02;;;19.02;;
31596;SDS011;18201;50.978;7.034;2022-08-19T01:12:36;22.55;;;20.13;;
31596;SDS011;18201;50.978;7.034;2022-08-19T01:13:37;22.85;;;19.17;;
31596;SDS011;18201;50.978;7.034;2022-08-19T01:14:39;21.85;;;19.75;;
31596;SDS011;18201;50.978;7.034;2022-08-19T01:15:42;22.17;;;19.98;;
31596;SDS011;18201;50.978;7.034;2022-08-19T01:16:47;21.95;;;19.95;;
31596;SDS011;18201;50.978;7.034;2022-08-19T01:17:49;21.77;;;19.55;;
31596;SDS011;18201;50.978;7.034;2022-08-19T01:18:51;22.27;;;19.85;;
31596;SDS011;18201;50.978;7.034;2022-08-19T01:19:54;21.83;;;19.52;;
31596;SDS011;18201;50.978;7.034;2022-08-19T01:20:58;20.27;;;18.27;;
31596;SDS011;18201;50.978;7.034;2022-08-19T01:22:03;21.67;;;19.48;;
31596;SDS011;18201;50.978;7.034;2022-08-19T01:23:11;20.58;;;18.35;;
31596;SDS011;18201;50.978;7.034;2022-08-19T01:24:13;21.10;;;18.85;;
31596;SDS011;18201;50.978;7.034;2022-08-19T01:25:17;20.83;;;18.73;;
31596;SDS011;18201;50.978;7.034;2022-08-19T01:26:20;20.80;;;18.80;;
31596;SDS011;18201;50.978;7.034;2022-08-19T01:28:41;20.52;;;18.48;;
31596;SDS011;18201;50.978;7.034;2022-08-19T01:29:44;20.85;;;18.77;;
31596;SDS011;18201;50.978;7.034;2022-08-19T01:30:45;21.15;;;19.00;;
31596;SDS011;18201;50.978;7.034;2022-08-19T01:31:47;22.05;;;19.95;;
31596;SDS011;18201;50.978;7.034;2022-08-19T01:32:49;22.08;;;19.98;;
31596;SDS011;18201;50.978;7.034;2022-08-19T01:33:52;21.40;;;19.15;;
31596;SDS011;18201;50.978;7.034;2022-08-19T01:34:55;21.73;;;19.48;;
31596;SDS011;18201;50.978;7.034;2022-08-19T01:36:04;22.13;;;20.00;;
31596;SDS011;18201;50.978;7.034;2022-08-19T01:38:20;22.05;;;19.77;;
31596;SDS011;18201;50.978;7.034;2022-08-19T01:39:23;25.58;;;20.38;;
31596;SDS011;18201;50.978;7.034;2022-08-19T01:40:28;21.23;;;19.00;;
31596;SDS011;18201;50.978;7.034;2022-08-19T01:41:31;23.15;;;19.73;;
31596;SDS011;18201;50.978;7.034;2022-08-19T01:42:33;21.67;;;19.50;;
31596;SDS011;18201;50.978;7.034;2022-08-19T01:43:35;21.85;;;19.80;;
31596;SDS011;18201;50.978;7.034;2022-08-19T01:44:38;21.85;;;19.52;;
31596;SDS011;18201;50.978;7.034;2022-08-19T01:45:41;22.60;;;20.35;;
31596;SDS011;18201;50.978;7.034;2022-08-19T01:46:43;22.08;;;19.88;;
31596;SDS011;18201;50.978;7.034;2022-08-19T01:47:44;22.20;;;20.10;;
31596;SDS011;18201;50.978;7.034;2022-08-19T01:48:46;22.67;;;20.58;;
31596;SDS011;18201;50.978;7.034;2022-08-19T01:49:47;22.95;;;19.33;;
31596;SDS011;18201;50.978;7.034;2022-08-19T01:50:49;20.90;;;18.90;;
31596;SDS011;18201;50.978;7.034;2022-08-19T01:51:50;23.73;;;21.33;;
31596;SDS011;18201;50.978;7.034;2022-08-19T01:52:53;22.52;;;20.33;;
31596;SDS011;18201;50.978;7.034;2022-08-19T01:53:56;23.38;;;20.77;;
31596;SDS011;18201;50.978;7.034;2022-08-19T01:54:58;23.80;;;21.30;;
31596;SDS011;18201;50.978;7.034;2022-08-19T01:55:59;24.27;;;20.92;;
31596;SDS011;18201;50.978;7.034;2022-08-19T01:57:02;22.90;;;20.65;;
31596;SDS011;18201;50.978;7.034;2022-08-19T01:58:07;21.73;;;19.55;;
31596;SDS011;18201;50.978;7.034;2022-08-19T01:59:12;22.33;;;19.58;;
31596;SDS011;18201;50.978;7.034;2022-08-19T02:00:17;23.58;;;20.27;;
31596;SDS011;18201;50.978;7.034;2022-08-19T02:01:23;21.50;;;19.38;;
31596;SDS011;18201;50.978;7.034;2022-08-19T02:02:24;23.25;;;20.92;;
31596;SDS011;18201;50.978;7.034;2022-08-19T02:03:31;20.83;;;18.83;;
31596;SDS011;18201;50.978;7.034;2022-08-19T02:04:34;23.05;;;20.58;;
31596;SDS011;18201;50.978;7.034;2022-08-19T02:05:38;22.42;;;20.05;;
31596;SDS011;18201;50.978;7.034;2022-08-19T02:06:40;23.48;;;21.17;;
31596;SDS011;18201;50.978;7.034;2022-08-19T02:07:42;21.20;;;19.10;;
31596;SDS011;18201;50.978;7.034;2022-08-19T02:08:44;22.77;;;20.30;;
31596;SDS011;18201;50.978;7.034;2022-08-19T02:09:49;23.33;;;21.05;;
31596;SDS011;18201;50.978;7.034;2022-08-19T02:10:50;21.67;;;19.48;;
31596;SDS011;18201;50.978;7.034;2022-08-19T02:11:52;22.27;;;19.98;;
31596;SDS011;18201;50.978;7.034;2022-08-19T02:12:56;23.33;;;20.95;;
31596;SDS011;18201;50.978;7.034;2022-08-19T02:13:58;22.90;;;20.55;;
31596;SDS011;18201;50.978;7.034;2022-08-19T02:15:02;23.33;;;20.92;;
31596;SDS011;18201;50.978;7.034;2022-08-19T02:16:03;24.52;;;21.90;;
31596;SDS011;18201;50.978;7.034;2022-08-19T02:17:06;22.60;;;20.20;;
31596;SDS011;18201;50.978;7.034;2022-08-19T02:18:06;23.02;;;20.88;;
31596;SDS011;18201;50.978;7.034;2022-08-19T02:19:08;24.65;;;22.15;;
31596;SDS011;18201;50.978;7.034;2022-08-19T02:20:10;22.98;;;20.67;;
31596;SDS011;18201;50.978;7.034;2022-08-19T02:21:14;23.40;;;20.90;;
31596;SDS011;18201;50.978;7.034;2022-08-19T02:22:17;22.17;;;20.00;;
31596;SDS011;18201;50.978;7.034;2022-08-19T02:23:19;23.20;;;20.92;;
31596;SDS011;18201;50.978;7.034;2022-08-19T02:24:20;22.00;;;19.80;;
31596;SDS011;18201;50.978;7.034;2022-08-19T02:25:25;22.70;;;20.45;;
31596;SDS011;18201;50.978;7.034;2022-08-19T02:26:26;23.35;;;21.05;;
31596;SDS011;18201;50.978;7.034;2022-08-19T02:27:28;21.80;;;19.60;;
31596;SDS011;18201;50.978;7.034;2022-08-19T02:28:29;22.65;;;20.45;;
31596;SDS011;18201;50.978;7.034;2022-08-19T02:29:32;21.55;;;19.45;;
31596;SDS011;18201;50.978;7.034;2022-08-19T02:30:33;22.17;;;20.08;;
31596;SDS011;18201;50.978;7.034;2022-08-19T02:31:35;21.88;;;19.67;;
31596;SDS011;18201;50.978;7.034;2022-08-19T02:32:36;21.65;;;19.55;;
31596;SDS011;18201;50.978;7.034;2022-08-19T02:33:40;27.23;;;22.38;;
31596;SDS011;18201;50.978;7.034;2022-08-19T02:34:43;22.85;;;20.42;;
31596;SDS011;18201;50.978;7.034;2022-08-19T02:35:45;23.70;;;21.40;;
31596;SDS011;18201;50.978;7.034;2022-08-19T02:36:46;22.92;;;20.73;;
31596;SDS011;18201;50.978;7.034;2022-08-19T02:37:48;23.80;;;21.50;;
31596;SDS011;18201;50.978;7.034;2022-08-19T02:39:08;23.05;;;20.77;;
31596;SDS011;18201;50.978;7.034;2022-08-19T02:40:09;23.80;;;21.30;;
31596;SDS011;18201;50.978;7.034;2022-08-19T02:41:13;22.85;;;20.55;;
31596;SDS011;18201;50.978;7.034;2022-08-19T02:42:17;23.45;;;21.13;;
31596;SDS011;18201;50.978;7.034;2022-08-19T02:43:19;23.55;;;21.25;;
31596;SDS011;18201;50.978;7.034;2022-08-19T02:44:21;22.73;;;20.55;;
31596;SDS011;18201;50.978;7.034;2022-08-19T02:45:23;23.45;;;21.00;;
31596;SDS011;18201;50.978;7.034;2022-08-19T02:46:25;24.23;;;21.73;;
31596;SDS011;18201;50.978;7.034;2022-08-19T02:47:28;24.13;;;21.83;;
31596;SDS011;18201;50.978;7.034;2022-08-19T02:48:29;24.25;;;21.75;;
31596;SDS011;18201;50.978;7.034;2022-08-19T02:49:32;24.08;;;21.67;;
31596;SDS011;18201;50.978;7.034;2022-08-19T02:50:33;25.63;;;23.02;;
31596;SDS011;18201;50.978;7.034;2022-08-19T02:51:39;24.20;;;21.77;;
31596;SDS011;18201;50.978;7.034;2022-08-19T02:52:41;24.98;;;22.38;;
31596;SDS011;18201;50.978;7.034;2022-08-19T02:53:43;24.13;;;21.73;;
31596;SDS011;18201;50.978;7.034;2022-08-19T02:54:44;23.40;;;20.92;;
31596;SDS011;18201;50.978;7.034;2022-08-19T02:55:46;25.75;;;22.63;;
31596;SDS011;18201;50.978;7.034;2022-08-19T02:56:49;25.08;;;22.25;;
31596;SDS011;18201;50.978;7.034;2022-08-19T02:57:51;24.13;;;21.42;;
31596;SDS011;18201;50.978;7.034;2022-08-19T02:58:53;24.20;;;21.63;;
31596;SDS011;18201;50.978;7.034;2022-08-19T02:59:55;25.95;;;23.23;;
31596;SDS011;18201;50.978;7.034;2022-08-19T03:00:56;26.63;;;23.92;;
31596;SDS011;18201;50.978;7.034;2022-08-19T03:01:58;25.25;;;22.52;;
31596;SDS011;18201;50.978;7.034;2022-08-19T03:03:03;25.65;;;23.05;;
31596;SDS011;18201;50.978;7.034;2022-08-19T03:04:27;26.02;;;23.27;;
31596;SDS011;18201;50.978;7.034;2022-08-19T03:05:37;25.55;;;22.70;;
31596;SDS011;18201;50.978;7.034;2022-08-19T03:06:39;28.27;;;24.33;;
31596;SDS011;18201;50.978;7.034;2022-08-19T03:07:42;27.00;;;24.10;;
31596;SDS011;18201;50.978;7.034;2022-08-19T03:08:43;26.08;;;23.40;;
31596;SDS011;18201;50.978;7.034;2022-08-19T03:09:47;25.77;;;23.10;;
31596;SDS011;18201;50.978;7.034;2022-08-19T03:10:48;26.98;;;24.15;;
31596;SDS011;18201;50.978;7.034;2022-08-19T03:11:53;26.23;;;23.52;;
31596;SDS011;18201;50.978;7.034;2022-08-19T03:12:54;26.27;;;21.15;;
31596;SDS011;18201;50.978;7.034;2022-08-19T03:15:04;24.50;;;22.10;;
31596;SDS011;18201;50.978;7.034;2022-08-19T03:16:08;24.67;;;21.88;;
31596;SDS011;18201;50.978;7.034;2022-08-19T03:17:10;24.50;;;21.08;;
31596;SDS011;18201;50.978;7.034;2022-08-19T03:18:12;24.45;;;21.98;;
31596;SDS011;18201;50.978;7.034;2022-08-19T03:19:15;23.88;;;21.30;;
31596;SDS011;18201;50.978;7.034;2022-08-19T03:20:18;25.85;;;23.23;;
31596;SDS011;18201;50.978;7.034;2022-08-19T03:21:25;26.50;;;23.77;;
31596;SDS011;18201;50.978;7.034;2022-08-19T03:22:29;26.27;;;23.50;;
31596;SDS011;18201;50.978;7.034;2022-08-19T03:25:42;26.40;;;23.67;;
31596;SDS011;18201;50.978;7.034;2022-08-19T03:26:45;25.48;;;22.80;;
31596;SDS011;18201;50.978;7.034;2022-08-19T03:27:50;24.83;;;22.42;;
31596;SDS011;18201;50.978;7.034;2022-08-19T03:28:51;25.25;;;22.52;;
31596;SDS011;18201;50.978;7.034;2022-08-19T03:29:53;25.75;;;23.20;;
31596;SDS011;18201;50.978;7.034;2022-08-19T03:30:54;26.30;;;23.33;;
31596;SDS011;18201;50.978;7.034;2022-08-19T03:31:58;26.40;;;23.55;;
31596;SDS011;18201;50.978;7.034;2022-08-19T03:33:00;25.85;;;23.20;;
31596;SDS011;18201;50.978;7.034;2022-08-19T03:34:02;25.80;;;22.33;;
31596;SDS011;18201;50.978;7.034;2022-08-19T03:35:03;24.60;;;22.10;;
31596;SDS011;18201;50.978;7.034;2022-08-19T03:36:06;25.70;;;23.00;;
31596;SDS011;18201;50.978;7.034;2022-08-19T03:37:11;27.02;;;22.98;;
31596;SDS011;18201;50.978;7.034;2022-08-19T03:38:12;24.85;;;22.45;;
31596;SDS011;18201;50.978;7.034;2022-08-19T03:39:14;27.23;;;24.42;;
31596;SDS011;18201;50.978;7.034;2022-08-19T03:40:16;25.98;;;23.25;;
31596;SDS011;18201;50.978;7.034;2022-08-19T03:41:19;25.25;;;22.75;;
31596;SDS011;18201;50.978;7.034;2022-08-19T03:42:22;24.80;;;22.40;;
31596;SDS011;18201;50.978;7.034;2022-08-19T03:43:26;26.65;;;23.25;;
31596;SDS011;18201;50.978;7.034;2022-08-19T03:44:29;27.13;;;23.13;;
31596;SDS011;18201;50.978;7.034;2022-08-19T03:45:32;24.42;;;21.83;;
31596;SDS011;18201;50.978;7.034;2022-08-19T03:46:48;25.33;;;22.63;;
31596;SDS011;18201;50.978;7.034;2022-08-19T03:47:52;26.20;;;23.48;;
31596;SDS011;18201;50.978;7.034;2022-08-19T03:48:53;25.58;;;22.90;;
31596;SDS011;18201;50.978;7.034;2022-08-19T03:49:56;25.38;;;22.88;;
31596;SDS011;18201;50.978;7.034;2022-08-19T03:50:57;26.80;;;23.92;;
31596;SDS011;18201;50.978;7.034;2022-08-19T03:52:00;27.55;;;24.70;;
31596;SDS011;18201;50.978;7.034;2022-08-19T03:53:01;27.33;;;24.55;;
31596;SDS011;18201;50.978;7.034;2022-08-19T03:54:04;31.10;;;25.10;;
31596;SDS011;18201;50.978;7.034;2022-08-19T03:55:07;25.85;;;23.15;;
31596;SDS011;18201;50.978;7.034;2022-08-19T03:56:10;26.92;;;24.08;;
31596;SDS011;18201;50.978;7.034;2022-08-19T03:57:11;26.63;;;23.50;;
31596;SDS011;18201;50.978;7.034;2022-08-19T03:58:13;27.50;;;24.55;;
31596;SDS011;18201;50.978;7.034;2022-08-19T03:59:16;27.83;;;24.95;;
31596;SDS011;18201;50.978;7.034;2022-08-19T04:00:25;28.02;;;25.13;;
31596;SDS011;18201;50.978;7.034;2022-08-19T04:01:27;27.42;;;24.38;;
31596;SDS011;18201;50.978;7.034;2022-08-19T04:02:30;29.05;;;25.40;;
31596;SDS011;18201;50.978;7.034;2022-08-19T04:03:32;26.75;;;24.00;;
31596;SDS011;18201;50.978;7.034;2022-08-19T04:04:34;28.70;;;25.75;;
31596;SDS011;18201;50.978;7.034;2022-08-19T04:05:37;26.63;;;23.92;;
31596;SDS011;18201;50.978;7.034;2022-08-19T04:06:38;28.58;;;25.75;;
31596;SDS011;18201;50.978;7.034;2022-08-19T04:07:40;28.40;;;25.42;;
31596;SDS011;18201;50.978;7.034;2022-08-19T04:08:42;30.65;;;26.83;;
31596;SDS011;18201;50.978;7.034;2022-08-19T04:09:45;29.60;;;26.27;;
31596;SDS011;18201;50.978;7.034;2022-08-19T04:10:46;29.98;;;26.88;;
31596;SDS011;18201;50.978;7.034;2022-08-19T04:11:49;29.00;;;25.95;;
31596;SDS011;18201;50.978;7.034;2022-08-19T04:12:53;30.13;;;26.50;;
31596;SDS011;18201;50.978;7.034;2022-08-19T04:13:55;29.33;;;26.23;;
31596;SDS011;18201;50.978;7.034;2022-08-19T04:14:58;29.52;;;26.55;;
31596;SDS011;18201;50.978;7.034;2022-08-19T04:16:00;30.65;;;27.45;;
31596;SDS011;18201;50.978;7.034;2022-08-19T04:17:01;31.83;;;28.45;;
31596;SDS011;18201;50.978;7.034;2022-08-19T04:18:04;31.55;;;27.95;;
31596;SDS011;18201;50.978;7.034;2022-08-19T04:20:16;32.08;;;28.63;;
31596;SDS011;18201;50.978;7.034;2022-08-19T04:21:19;30.73;;;27.67;;
31596;SDS011;18201;50.978;7.034;2022-08-19T04:39:18;31.85;;;28.38;;
31596;SDS011;18201;50.978;7.034;2022-08-19T04:40:20;29.48;;;26.35;;
31596;SDS011;18201;50.978;7.034;2022-08-19T04:41:39;30.85;;;27.52;;
31596;SDS011;18201;50.978;7.034;2022-08-19T04:42:59;32.83;;;29.07;;
31596;SDS011;18201;50.978;7.034;2022-08-19T04:44:01;29.73;;;26.70;;
31596;SDS011;18201;50.978;7.034;2022-08-19T04:45:02;29.85;;;26.65;;
31596;SDS011;18201;50.978;7.034;2022-08-19T04:46:07;30.27;;;27.13;;
31596;SDS011;18201;50.978;7.034;2022-08-19T04:47:10;31.05;;;27.75;;
31596;SDS011;18201;50.978;7.034;2022-08-19T04:48:11;30.55;;;27.02;;
31596;SDS011;18201;50.978;7.034;2022-08-19T04:49:14;30.23;;;27.02;;
31596;SDS011;18201;50.978;7.034;2022-08-19T04:50:17;30.42;;;27.25;;
31596;SDS011;18201;50.978;7.034;2022-08-19T04:51:18;30.90;;;27.52;;
31596;SDS011;18201;50.978;7.034;2022-08-19T04:52:20;29.60;;;26.33;;
31596;SDS011;18201;50.978;7.034;2022-08-19T04:53:23;28.33;;;25.38;;
31596;SDS011;18201;50.978;7.034;2022-08-19T04:54:25;30.73;;;27.48;;
31596;SDS011;18201;50.978;7.034;2022-08-19T04:55:26;29.95;;;26.75;;
31596;SDS011;18201;50.978;7.034;2022-08-19T04:56:28;28.75;;;25.75;;
31596;SDS011;18201;50.978;7.034;2022-08-19T04:57:29;30.85;;;26.52;;
31596;SDS011;18201;50.978;7.034;2022-08-19T04:58:31;33.58;;;27.73;;
31596;SDS011;18201;50.978;7.034;2022-08-19T04:59:32;30.42;;;27.23;;
31596;SDS011;18201;50.978;7.034;2022-08-19T05:00:36;30.23;;;26.85;;
31596;SDS011;18201;50.978;7.034;2022-08-19T05:01:38;31.92;;;27.08;;
31596;SDS011;18201;50.978;7.034;2022-08-19T05:02:40;30.48;;;27.17;;
31596;SDS011;18201;50.978;7.034;2022-08-19T05:03:41;30.98;;;27.58;;
31596;SDS011;18201;50.978;7.034;2022-08-19T05:04:43;30.98;;;27.23;;
31596;SDS011;18201;50.978;7.034;2022-08-19T05:05:44;31.30;;;28.00;;
31596;SDS011;18201;50.978;7.034;2022-08-19T05:06:48;30.90;;;27.70;;
31596;SDS011;18201;50.978;7.034;2022-08-19T05:07:49;31.83;;;28.50;;
31596;SDS011;18201;50.978;7.034;2022-08-19T05:08:52;30.98;;;27.80;;
31596;SDS011;18201;50.978;7.034;2022-08-19T05:09:53;33.10;;;29.60;;
31596;SDS011;18201;50.978;7.034;2022-08-19T05:10:56;31.10;;;25.58;;
31596;SDS011;18201;50.978;7.034;2022-08-19T05:11:57;31.95;;;28.48;;
31596;SDS011;18201;50.978;7.034;2022-08-19T05:13:00;33.58;;;29.20;;
31596;SDS011;18201;50.978;7.034;2022-08-19T05:14:00;33.47;;;29.98;;
31596;SDS011;18201;50.978;7.034;2022-08-19T05:15:03;34.15;;;29.45;;
31596;SDS011;18201;50.978;7.034;2022-08-19T05:16:07;35.28;;;28.63;;
31596;SDS011;18201;50.978;7.034;2022-08-19T05:17:08;36.20;;;28.30;;
31596;SDS011;18201;50.978;7.034;2022-08-19T05:18:09;32.97;;;29.50;;
31596;SDS011;18201;50.978;7.034;2022-08-19T05:19:29;31.75;;;27.30;;
31596;SDS011;18201;50.978;7.034;2022-08-19T05:20:48;31.48;;;28.13;;
31596;SDS011;18201;50.978;7.034;2022-08-19T05:22:07;32.10;;;27.88;;
31596;SDS011;18201;50.978;7.034;2022-08-19T05:23:27;37.13;;;27.95;;
31596;SDS011;18201;50.978;7.034;2022-08-19T05:24:30;32.85;;;29.25;;
31596;SDS011;18201;50.978;7.034;2022-08-19T05:25:34;33.40;;;29.33;;
31596;SDS011;18201;50.978;7.034;2022-08-19T05:26:36;30.77;;;27.48;;
31596;SDS011;18201;50.978;7.034;2022-08-19T05:27:37;30.25;;;27.00;;
31596;SDS011;18201;50.978;7.034;2022-08-19T05:28:39;35.92;;;29.38;;
31596;SDS011;18201;50.978;7.034;2022-08-19T05:29:40;33.03;;;29.50;;
31596;SDS011;18201;50.978;7.034;2022-08-19T05:30:42;39.15;;;32.55;;
31596;SDS011;18201;50.978;7.034;2022-08-19T05:31:45;33.83;;;30.25;;
31596;SDS011;18201;50.978;7.034;2022-08-19T05:32:49;33.15;;;29.60;;
31596;SDS011;18201;50.978;7.034;2022-08-19T05:33:50;31.77;;;28.30;;
31596;SDS011;18201;50.978;7.034;2022-08-19T05:34:52;33.08;;;29.48;;
31596;SDS011;18201;50.978;7.034;2022-08-19T05:35:52;35.65;;;30.88;;
31596;SDS011;18201;50.978;7.034;2022-08-19T05:36:56;35.20;;;30.67;;
31596;SDS011;18201;50.978;7.034;2022-08-19T05:37:59;33.70;;;30.15;;
31596;SDS011;18201;50.978;7.034;2022-08-19T05:39:01;46.47;;;37.78;;
31596;SDS011;18201;50.978;7.034;2022-08-19T05:40:05;45.30;;;35.92;;
31596;SDS011;18201;50.978;7.034;2022-08-19T05:41:08;49.38;;;37.22;;
31596;SDS011;18201;50.978;7.034;2022-08-19T05:42:10;52.58;;;39.22;;
31596;SDS011;18201;50.978;7.034;2022-08-19T05:43:13;42.80;;;35.97;;
31596;SDS011;18201;50.978;7.034;2022-08-19T05:44:16;46.92;;;40.22;;
31596;SDS011;18201;50.978;7.034;2022-08-19T05:45:18;45.95;;;40.35;;
31596;SDS011;18201;50.978;7.034;2022-08-19T05:46:21;55.33;;;43.80;;
31596;SDS011;18201;50.978;7.034;2022-08-19T05:47:28;52.28;;;42.20;;
31596;SDS011;18201;50.978;7.034;2022-08-19T05:48:38;53.70;;;44.97;;
31596;SDS011;18201;50.978;7.034;2022-08-19T05:50:47;58.35;;;46.35;;
31596;SDS011;18201;50.978;7.034;2022-08-19T05:51:50;67.10;;;49.35;;
31596;SDS011;18201;50.978;7.034;2022-08-19T05:52:54;60.70;;;46.58;;
31596;SDS011;18201;50.978;7.034;2022-08-19T05:54:02;65.72;;;51.65;;
31596;SDS011;18201;50.978;7.034;2022-08-19T05:55:07;70.80;;;52.65;;
31596;SDS011;18201;50.978;7.034;2022-08-19T05:56:10;68.85;;;53.35;;
31596;SDS011;18201;50.978;7.034;2022-08-19T05:57:13;75.47;;;55.63;;
31596;SDS011;18201;50.978;7.034;2022-08-19T05:58:16;73.10;;;54.50;;
31596;SDS011;18201;50.978;7.034;2022-08-19T05:59:18;77.80;;;55.03;;
31596;SDS011;18201;50.978;7.034;2022-08-19T06:00:21;76.95;;;56.60;;
31596;SDS011;18201;50.978;7.034;2022-08-19T06:01:23;78.63;;;59.17;;
31596;SDS011;18201;50.978;7.034;2022-08-19T06:02:26;78.05;;;57.33;;
31596;SDS011;18201;50.978;7.034;2022-08-19T06:03:28;75.78;;;58.30;;
31596;SDS011;18201;50.978;7.034;2022-08-19T06:04:29;82.55;;;59.00;;
31596;SDS011;18201;50.978;7.034;2022-08-19T06:05:31;74.32;;;55.58;;
31596;SDS011;18201;50.978;7.034;2022-08-19T06:08:25;77.20;;;57.85;;
31596;SDS011;18201;50.978;7.034;2022-08-19T06:09:27;79.68;;;56.53;;
31596;SDS011;18201;50.978;7.034;2022-08-19T06:10:29;82.35;;;60.97;;
31596;SDS011;18201;50.978;7.034;2022-08-19T06:11:33;82.05;;;60.83;;
31596;SDS011;18201;50.978;7.034;2022-08-19T06:12:36;85.40;;;62.80;;
31596;SDS011;18201;50.978;7.034;2022-08-19T06:13:38;80.80;;;60.55;;
31596;SDS011;18201;50.978;7.034;2022-08-19T06:14:39;83.60;;;62.00;;
31596;SDS011;18201;50.978;7.034;2022-08-19T06:15:41;84.20;;;61.67;;
31596;SDS011;18201;50.978;7.034;2022-08-19T06:16:44;80.82;;;62.20;;
31596;SDS011;18201;50.978;7.034;2022-08-19T06:17:46;82.22;;;62.28;;
31596;SDS011;18201;50.978;7.034;2022-08-19T06:18:48;80.10;;;60.83;;
31596;SDS011;18201;50.978;7.034;2022-08-19T06:19:52;82.18;;;61.25;;
31596;SDS011;18201;50.978;7.034;2022-08-19T06:20:53;77.30;;;59.33;;
31596;SDS011;18201;50.978;7.034;2022-08-19T06:21:55;78.60;;;61.83;;
31596;SDS011;18201;50.978;7.034;2022-08-19T06:22:58;75.35;;;59.42;;
31596;SDS011;18201;50.978;7.034;2022-08-19T06:24:00;78.18;;;59.08;;
31596;SDS011;18201;50.978;7.034;2022-08-19T06:25:01;74.47;;;58.05;;
31596;SDS011;18201;50.978;7.034;2022-08-19T06:26:07;74.88;;;57.90;;
31596;SDS011;18201;50.978;7.034;2022-08-19T06:27:12;70.95;;;57.13;;
31596;SDS011;18201;50.978;7.034;2022-08-19T06:28:13;76.60;;;57.35;;
31596;SDS011;18201;50.978;7.034;2022-08-19T06:29:15;74.28;;;57.85;;
31596;SDS011;18201;50.978;7.034;2022-08-19T06:32:05;73.82;;;54.95;;
31596;SDS011;18201;50.978;7.034;2022-08-19T06:33:23;76.20;;;55.10;;
31596;SDS011;18201;50.978;7.034;2022-08-19T06:34:25;70.18;;;54.58;;
31596;SDS011;18201;50.978;7.034;2022-08-19T06:35:28;72.00;;;54.85;;
31596;SDS011;18201;50.978;7.034;2022-08-19T06:36:30;66.88;;;51.90;;
31596;SDS011;18201;50.978;7.034;2022-08-19T06:37:36;73.60;;;53.80;;